Terminal Aerodrome Forecast
Issued by NWS

Home | Current Version | Previous Version | Text Only | Print | Product List | Glossary On
Versions: 1 2 3 4 5 6 7 8 9 10 11 12 13 14 15 16
000
FTUS45 KVEF 210906 AAA
TAFDAG
TAF AMD
KDAG 210906Z 2109/2206 26020G28KT P6SM FEW070
     FM211300 25030G40KT P6SM FEW090
     FM212300 25018G25KT P6SM FEW090 SCT150=

USA.gov is the U.S. government's official web portal to all federal, state and local government web resources and services.